createdAt,value
2023-03-12T16:05:39.352Z,100639.81
2023-03-12T16:08:14.741Z,100646.00
2023-03-12T16:10:42.396Z,100653.69
2023-03-12T16:13:15.190Z,100648.75
2023-03-12T16:15:42.830Z,100651.25
2023-03-12T16:18:14.394Z,100663.56
2023-03-12T16:20:41.940Z,100675.75
2023-03-12T16:23:09.625Z,100674.72
2023-03-12T16:25:37.484Z,100676.03
2023-03-12T16:28:08.338Z,100679.25
2023-03-12T16:30:50.852Z,100686.53
2023-03-12T16:33:20.458Z,100684.47
2023-03-12T16:35:49.461Z,100685.63
2023-03-12T16:38:18.160Z,100690.50
2023-03-12T16:40:48.201Z,100691.44
2023-03-12T16:43:18.561Z,100698.75
2023-03-12T16:45:47.507Z,100704.22
2023-03-12T16:48:19.879Z,100699.59
2023-03-12T16:50:49.808Z,100698.72
2023-03-12T16:53:17.742Z,100693.97
2023-03-12T16:55:51.714Z,100698.91
2023-03-12T16:58:20.514Z,100703.97
2023-03-12T17:00:48.269Z,100702.41
2023-03-12T17:03:21.337Z,100715.38
2023-03-12T17:05:49.312Z,100722.47
2023-03-12T17:08:17.556Z,100721.47
2023-03-12T17:10:45.639Z,100726.38
2023-03-12T17:13:19.315Z,100732.13
2023-03-12T17:15:47.648Z,100734.97
2023-03-12T17:18:15.808Z,100736.22
2023-03-12T17:20:43.410Z,100741.13
2023-03-12T17:23:12.872Z,100745.13
2023-03-12T17:25:42.045Z,100743.16
2023-03-12T17:28:10.706Z,100742.25
2023-03-12T17:30:39.391Z,100745.66
2023-03-12T17:33:09.207Z,100755.94
2023-03-12T17:35:37.363Z,100763.38
2023-03-12T17:38:05.015Z,100772.09
2023-03-12T17:40:33.188Z,100780.81
2023-03-12T17:43:01.154Z,100786.88
2023-03-12T17:45:28.963Z,100799.94
2023-03-12T17:47:56.884Z,100813.75
2023-03-12T17:50:24.949Z,100819.88
2023-03-12T17:52:55.130Z,100822.97
2023-03-12T17:55:23.229Z,100822.25
2023-03-12T17:57:53.121Z,100832.03
2023-03-12T18:00:23.152Z,100829.47
2023-03-12T18:02:51.053Z,100836.03
2023-03-12T18:05:22.686Z,100837.22
2023-03-12T18:19:42.518Z,100842.22
2023-03-12T18:31:48.590Z,100858.88
2023-03-12T18:34:17.305Z,100858.38
2023-03-12T18:36:45.267Z,100869.44
2023-03-12T18:39:13.408Z,100866.25
2023-03-12T18:41:42.297Z,100878.44
2023-03-12T18:44:10.274Z,100880.44
2023-03-12T18:46:38.046Z,100884.34
2023-03-12T18:49:08.035Z,100879.97
2023-03-12T18:51:35.934Z,100884.50
2023-03-12T18:54:03.804Z,100884.81
2023-03-12T18:56:31.659Z,100889.94
2023-03-12T18:58:59.330Z,100890.47
2023-03-12T19:01:27.251Z,100891.38
2023-03-12T19:03:55.512Z,100902.94
2023-03-12T19:06:23.339Z,100905.34
2023-03-12T19:08:50.845Z,100911.44
2023-03-12T19:11:18.652Z,100915.25
2023-03-12T19:13:49.978Z,100913.47
2023-03-12T19:16:21.883Z,100917.91
2023-03-12T19:18:51.926Z,100916.53
2023-03-12T19:21:19.567Z,100919.28
2023-03-12T19:23:47.208Z,100918.44
2023-03-12T19:26:15.047Z,100925.56
2023-03-12T19:28:42.696Z,100931.13
2023-03-12T19:31:12.226Z,100937.84
2023-03-12T19:33:39.807Z,100933.03
2023-03-12T19:36:07.786Z,100925.59
2023-03-12T19:38:35.559Z,100934.69
2023-03-12T19:41:05.520Z,100938.09
2023-03-12T19:43:37.369Z,100944.94
2023-03-12T19:46:05.006Z,100964.19
2023-03-12T19:48:33.100Z,100966.38
2023-03-12T19:51:10.758Z,100974.13
2023-03-12T19:53:38.453Z,100990.25
2023-03-12T19:56:06.196Z,100996.88
2023-03-12T19:58:33.936Z,100990.84
2023-03-12T20:01:01.548Z,100984.81
2023-03-12T20:03:30.365Z,100994.19
2023-03-12T20:05:57.842Z,101002.16
2023-03-12T20:08:30.516Z,101004.63
2023-03-12T20:11:01.704Z,101005.69
2023-03-12T20:13:29.330Z,101003.53
2023-03-12T20:15:57.016Z,101005.19
2023-03-12T20:18:24.668Z,101006.38
2023-03-12T20:20:52.304Z,101006.09
2023-03-12T20:23:19.910Z,101005.84
2023-03-12T20:25:50.601Z,100998.72
2023-03-12T20:28:18.361Z,100998.72
2023-03-12T20:30:46.009Z,100991.03
2023-03-12T20:33:13.830Z,100999.81
2023-03-12T20:35:41.387Z,100996.81
2023-03-12T20:38:08.982Z,100992.13
2023-03-12T20:40:36.740Z,100988.59
2023-03-12T20:43:05.217Z,100997.91
2023-03-12T20:45:33.362Z,101001.44
2023-03-12T20:48:01.217Z,100991.09
2023-03-12T20:50:29.132Z,100997.16
2023-03-12T20:52:56.772Z,100999.31
2023-03-12T20:55:24.324Z,100989.44
2023-03-12T20:57:51.941Z,100993.84
2023-03-12T21:00:22.193Z,100990.56
2023-03-12T21:02:49.701Z,100994.41
2023-03-12T21:05:17.424Z,100989.47
2023-03-12T21:07:45.045Z,101000.44
2023-03-12T21:10:13.443Z,101007.03
2023-03-12T21:12:41.344Z,101010.03
2023-03-12T21:15:09.911Z,101023.47
2023-03-12T21:17:38.515Z,101018.25
2023-03-12T21:20:10.945Z,101038.81
2023-03-12T21:22:38.876Z,101039.09
2023-03-12T21:25:07.141Z,101036.38
2023-03-12T21:27:48.098Z,101034.19
2023-03-12T21:30:17.865Z,101040.75
2023-03-12T21:32:45.583Z,101041.88
2023-03-12T21:35:13.130Z,101044.59
2023-03-12T21:37:40.871Z,101043.50
2023-03-12T21:40:09.341Z,101040.75
2023-03-12T21:42:36.947Z,101045.72
2023-03-12T21:45:04.878Z,101045.97
2023-03-12T21:47:32.456Z,101051.72
2023-03-12T21:50:00.010Z,101047.34
2023-03-12T21:52:27.724Z,101055.84
2023-03-12T21:54:55.366Z,101047.34
2023-03-12T21:57:23.003Z,101039.41
2023-03-12T21:59:50.578Z,101045.41
2023-03-12T22:02:18.133Z,101043.78
2023-03-12T22:04:45.799Z,101041.84
2023-03-12T22:07:13.444Z,101053.63
2023-03-12T22:09:41.138Z,101049.25
2023-03-12T22:12:08.720Z,101048.44
2023-03-12T22:14:36.321Z,101043.19
2023-03-12T22:17:03.902Z,101038.78
2023-03-12T22:19:31.505Z,101047.28
2023-03-12T22:21:59.039Z,101052.75
2023-03-12T22:24:26.696Z,101053.84
2023-03-12T22:26:54.265Z,101057.34
2023-03-12T22:29:21.825Z,101048.81
2023-03-12T22:31:50.054Z,101048.53
2023-03-12T22:34:17.728Z,101049.06
2023-03-12T22:36:45.357Z,101047.91
2023-03-12T22:39:12.873Z,101047.59
2023-03-12T22:41:40.625Z,101043.91
2023-03-12T22:44:09.185Z,101049.06
2023-03-12T22:46:36.905Z,101046.31
2023-03-12T22:49:05.238Z,101049.88
2023-03-12T22:51:33.015Z,101053.16
2023-03-12T22:54:00.762Z,101062.16
2023-03-12T22:56:28.808Z,101059.16
2023-03-12T22:58:56.476Z,101059.16
2023-03-12T23:01:24.236Z,101055.56
2023-03-12T23:03:52.451Z,101063.19
2023-03-12T23:06:21.255Z,101051.97
2023-03-12T23:08:49.200Z,101053.25
2023-03-12T23:11:17.019Z,101054.56
2023-03-12T23:13:45.319Z,101057.81
2023-03-12T23:16:15.779Z,101047.19
2023-03-12T23:18:43.824Z,101049.88
2023-03-12T23:21:13.762Z,101052.34
2023-03-12T23:23:43.648Z,101047.38
2023-03-12T23:26:13.528Z,101057.78
2023-03-12T23:28:41.525Z,101057.22
2023-03-12T23:31:10.773Z,101061.81
2023-03-12T23:33:38.498Z,101066.50
2023-03-12T23:36:11.761Z,101068.94
2023-03-12T23:38:39.847Z,101068.59
2023-03-12T23:41:09.443Z,101067.44
2023-03-12T23:43:37.040Z,101064.91
2023-03-12T23:46:05.778Z,101063.06
2023-03-12T23:48:33.976Z,101053.00
2023-03-12T23:51:12.071Z,101055.94
2023-03-12T23:53:40.562Z,101049.38
2023-03-12T23:56:32.357Z,101053.09
2023-03-12T23:58:59.978Z,101056.47
